sensor_id;sensor_type;location;lat;lon;timestamp;P1;durP1;ratioP1;P2;durP2;ratioP2
31091;SDS011;67728;53.122;12.776;2023-04-15T00:00:18;292.00;;;55.33;;
31091;SDS011;67728;53.122;12.776;2023-04-15T00:01:50;291.20;;;55.13;;
31091;SDS011;67728;53.122;12.776;2023-04-15T00:03:21;293.23;;;55.53;;
31091;SDS011;67728;53.122;12.776;2023-04-15T00:04:53;290.07;;;55.67;;
31091;SDS011;67728;53.122;12.776;2023-04-15T00:06:25;293.77;;;55.97;;
31091;SDS011;67728;53.122;12.776;2023-04-15T00:07:55;293.37;;;56.37;;
31091;SDS011;67728;53.122;12.776;2023-04-15T00:09:27;292.67;;;55.80;;
31091;SDS011;67728;53.122;12.776;2023-04-15T00:10:58;295.23;;;56.30;;
31091;SDS011;67728;53.122;12.776;2023-04-15T00:12:36;294.00;;;56.13;;
31091;SDS011;67728;53.122;12.776;2023-04-15T00:14:07;297.40;;;56.60;;
31091;SDS011;67728;53.122;12.776;2023-04-15T00:15:39;293.70;;;56.00;;
31091;SDS011;67728;53.122;12.776;2023-04-15T00:17:09;292.63;;;55.77;;
31091;SDS011;67728;53.122;12.776;2023-04-15T00:18:42;293.40;;;55.53;;
31091;SDS011;67728;53.122;12.776;2023-04-15T00:20:12;295.60;;;56.47;;
31091;SDS011;67728;53.122;12.776;2023-04-15T00:21:44;294.10;;;55.90;;
31091;SDS011;67728;53.122;12.776;2023-04-15T00:23:16;292.63;;;55.27;;
31091;SDS011;67728;53.122;12.776;2023-04-15T00:24:47;294.13;;;55.57;;
31091;SDS011;67728;53.122;12.776;2023-04-15T00:26:19;295.37;;;56.07;;
31091;SDS011;67728;53.122;12.776;2023-04-15T00:27:52;294.27;;;56.07;;
31091;SDS011;67728;53.122;12.776;2023-04-15T00:29:23;295.80;;;55.80;;
31091;SDS011;67728;53.122;12.776;2023-04-15T00:30:55;292.90;;;55.03;;
31091;SDS011;67728;53.122;12.776;2023-04-15T00:32:27;292.90;;;55.27;;
31091;SDS011;67728;53.122;12.776;2023-04-15T00:33:59;292.83;;;55.47;;
31091;SDS011;67728;53.122;12.776;2023-04-15T00:35:31;293.30;;;55.30;;
31091;SDS011;67728;53.122;12.776;2023-04-15T00:37:02;293.33;;;55.47;;
31091;SDS011;67728;53.122;12.776;2023-04-15T00:38:34;295.13;;;55.87;;
31091;SDS011;67728;53.122;12.776;2023-04-15T00:40:06;294.90;;;55.87;;
31091;SDS011;67728;53.122;12.776;2023-04-15T00:41:42;292.10;;;54.90;;
31091;SDS011;67728;53.122;12.776;2023-04-15T00:43:17;291.03;;;54.47;;
31091;SDS011;67728;53.122;12.776;2023-04-15T00:44:47;290.67;;;54.70;;
31091;SDS011;67728;53.122;12.776;2023-04-15T00:46:19;292.00;;;54.70;;
31091;SDS011;67728;53.122;12.776;2023-04-15T00:47:51;291.73;;;55.03;;
31091;SDS011;67728;53.122;12.776;2023-04-15T00:49:23;291.30;;;54.73;;
31091;SDS011;67728;53.122;12.776;2023-04-15T00:50:56;292.93;;;55.40;;
31091;SDS011;67728;53.122;12.776;2023-04-15T00:52:28;292.93;;;55.50;;
31091;SDS011;67728;53.122;12.776;2023-04-15T00:53:59;293.23;;;55.30;;
31091;SDS011;67728;53.122;12.776;2023-04-15T00:55:31;293.73;;;55.60;;
31091;SDS011;67728;53.122;12.776;2023-04-15T00:57:04;291.57;;;55.10;;
31091;SDS011;67728;53.122;12.776;2023-04-15T00:58:37;291.13;;;55.10;;
31091;SDS011;67728;53.122;12.776;2023-04-15T01:00:09;291.63;;;55.27;;
31091;SDS011;67728;53.122;12.776;2023-04-15T01:01:41;290.83;;;54.70;;
31091;SDS011;67728;53.122;12.776;2023-04-15T01:03:15;292.27;;;55.33;;
31091;SDS011;67728;53.122;12.776;2023-04-15T01:04:47;292.87;;;55.17;;
31091;SDS011;67728;53.122;12.776;2023-04-15T01:06:19;291.20;;;55.40;;
31091;SDS011;67728;53.122;12.776;2023-04-15T01:07:50;292.73;;;55.50;;
31091;SDS011;67728;53.122;12.776;2023-04-15T01:09:22;293.27;;;55.40;;
31091;SDS011;67728;53.122;12.776;2023-04-15T01:10:52;293.07;;;55.73;;
31091;SDS011;67728;53.122;12.776;2023-04-15T01:12:25;292.33;;;55.47;;
31091;SDS011;67728;53.122;12.776;2023-04-15T01:13:58;292.13;;;55.40;;
31091;SDS011;67728;53.122;12.776;2023-04-15T01:15:30;295.47;;;55.90;;
31091;SDS011;67728;53.122;12.776;2023-04-15T01:17:02;292.20;;;55.40;;
31091;SDS011;67728;53.122;12.776;2023-04-15T01:18:34;291.37;;;54.83;;
31091;SDS011;67728;53.122;12.776;2023-04-15T01:20:07;293.37;;;55.90;;
31091;SDS011;67728;53.122;12.776;2023-04-15T01:21:39;291.97;;;55.30;;
31091;SDS011;67728;53.122;12.776;2023-04-15T01:23:11;291.93;;;55.67;;
31091;SDS011;67728;53.122;12.776;2023-04-15T01:24:42;291.27;;;56.60;;
31091;SDS011;67728;53.122;12.776;2023-04-15T01:26:22;292.43;;;56.37;;
31091;SDS011;67728;53.122;12.776;2023-04-15T01:27:55;292.40;;;56.53;;
31091;SDS011;67728;53.122;12.776;2023-04-15T01:29:27;294.77;;;56.03;;
31091;SDS011;67728;53.122;12.776;2023-04-15T01:31:05;293.77;;;55.40;;
31091;SDS011;67728;53.122;12.776;2023-04-15T01:32:37;292.23;;;55.57;;
31091;SDS011;67728;53.122;12.776;2023-04-15T01:34:08;295.23;;;55.90;;
31091;SDS011;67728;53.122;12.776;2023-04-15T01:35:40;294.63;;;55.53;;
31091;SDS011;67728;53.122;12.776;2023-04-15T01:37:13;292.53;;;55.10;;
31091;SDS011;67728;53.122;12.776;2023-04-15T01:38:45;292.77;;;59.33;;
31091;SDS011;67728;53.122;12.776;2023-04-15T01:40:17;295.00;;;55.73;;
31091;SDS011;67728;53.122;12.776;2023-04-15T01:41:49;296.70;;;55.87;;
31091;SDS011;67728;53.122;12.776;2023-04-15T01:43:21;291.53;;;54.90;;
31091;SDS011;67728;53.122;12.776;2023-04-15T01:44:52;293.30;;;55.33;;
31091;SDS011;67728;53.122;12.776;2023-04-15T01:46:24;292.67;;;55.07;;
31091;SDS011;67728;53.122;12.776;2023-04-15T01:47:55;293.67;;;58.57;;
31091;SDS011;67728;53.122;12.776;2023-04-15T01:49:27;293.70;;;61.87;;
31091;SDS011;67728;53.122;12.776;2023-04-15T01:50:59;294.67;;;56.97;;
31091;SDS011;67728;53.122;12.776;2023-04-15T01:52:31;299.67;;;73.80;;
31091;SDS011;67728;53.122;12.776;2023-04-15T01:54:02;290.73;;;57.00;;
31091;SDS011;67728;53.122;12.776;2023-04-15T01:55:34;293.93;;;55.40;;
31091;SDS011;67728;53.122;12.776;2023-04-15T01:57:06;293.30;;;55.20;;
31091;SDS011;67728;53.122;12.776;2023-04-15T01:58:38;292.93;;;55.13;;
31091;SDS011;67728;53.122;12.776;2023-04-15T02:00:10;293.50;;;55.33;;
31091;SDS011;67728;53.122;12.776;2023-04-15T02:01:41;292.80;;;54.90;;
31091;SDS011;67728;53.122;12.776;2023-04-15T02:03:14;291.93;;;54.87;;
31091;SDS011;67728;53.122;12.776;2023-04-15T02:04:44;294.67;;;55.63;;
31091;SDS011;67728;53.122;12.776;2023-04-15T02:06:16;293.87;;;55.17;;
31091;SDS011;67728;53.122;12.776;2023-04-15T02:07:48;293.23;;;55.00;;
31091;SDS011;67728;53.122;12.776;2023-04-15T02:09:20;293.53;;;55.20;;
31091;SDS011;67728;53.122;12.776;2023-04-15T02:10:51;295.73;;;55.47;;
31091;SDS011;67728;53.122;12.776;2023-04-15T02:12:23;294.13;;;55.23;;
31091;SDS011;67728;53.122;12.776;2023-04-15T02:13:56;293.60;;;55.57;;
31091;SDS011;67728;53.122;12.776;2023-04-15T02:15:27;293.67;;;55.37;;
31091;SDS011;67728;53.122;12.776;2023-04-15T02:16:58;295.80;;;55.90;;
31091;SDS011;67728;53.122;12.776;2023-04-15T02:18:36;292.47;;;54.97;;
31091;SDS011;67728;53.122;12.776;2023-04-15T02:20:08;295.60;;;56.20;;
31091;SDS011;67728;53.122;12.776;2023-04-15T02:21:39;292.83;;;55.27;;
31091;SDS011;67728;53.122;12.776;2023-04-15T02:23:11;293.17;;;55.20;;
31091;SDS011;67728;53.122;12.776;2023-04-15T02:24:43;294.13;;;55.60;;
31091;SDS011;67728;53.122;12.776;2023-04-15T02:26:16;292.57;;;55.30;;
31091;SDS011;67728;53.122;12.776;2023-04-15T02:27:48;294.70;;;55.70;;
31091;SDS011;67728;53.122;12.776;2023-04-15T02:29:20;295.43;;;55.73;;
31091;SDS011;67728;53.122;12.776;2023-04-15T02:30:53;296.20;;;55.73;;
31091;SDS011;67728;53.122;12.776;2023-04-15T02:32:27;294.70;;;55.67;;
31091;SDS011;67728;53.122;12.776;2023-04-15T02:33:58;294.80;;;55.40;;
31091;SDS011;67728;53.122;12.776;2023-04-15T02:35:30;294.33;;;55.40;;
31091;SDS011;67728;53.122;12.776;2023-04-15T02:37:01;294.77;;;55.40;;
31091;SDS011;67728;53.122;12.776;2023-04-15T02:38:32;293.03;;;55.30;;
31091;SDS011;67728;53.122;12.776;2023-04-15T02:40:05;291.67;;;54.53;;
31091;SDS011;67728;53.122;12.776;2023-04-15T02:41:36;291.97;;;54.73;;
31091;SDS011;67728;53.122;12.776;2023-04-15T02:43:09;292.03;;;54.87;;
31091;SDS011;67728;53.122;12.776;2023-04-15T02:44:41;294.93;;;63.77;;
31091;SDS011;67728;53.122;12.776;2023-04-15T02:46:12;299.33;;;71.40;;
31091;SDS011;67728;53.122;12.776;2023-04-15T02:47:44;293.53;;;55.20;;
31091;SDS011;67728;53.122;12.776;2023-04-15T02:49:16;292.13;;;54.83;;
31091;SDS011;67728;53.122;12.776;2023-04-15T02:50:48;292.77;;;55.23;;
31091;SDS011;67728;53.122;12.776;2023-04-15T02:52:19;295.00;;;55.43;;
31091;SDS011;67728;53.122;12.776;2023-04-15T02:53:51;295.17;;;55.40;;
31091;SDS011;67728;53.122;12.776;2023-04-15T02:55:22;292.70;;;55.90;;
31091;SDS011;67728;53.122;12.776;2023-04-15T02:56:53;294.13;;;55.30;;
31091;SDS011;67728;53.122;12.776;2023-04-15T02:58:27;294.87;;;55.30;;
31091;SDS011;67728;53.122;12.776;2023-04-15T02:59:58;294.67;;;55.50;;
31091;SDS011;67728;53.122;12.776;2023-04-15T03:01:30;293.23;;;54.83;;
31091;SDS011;67728;53.122;12.776;2023-04-15T03:03:02;295.07;;;55.40;;
31091;SDS011;67728;53.122;12.776;2023-04-15T03:04:36;292.13;;;54.67;;
31091;SDS011;67728;53.122;12.776;2023-04-15T03:06:08;290.43;;;54.63;;
31091;SDS011;67728;53.122;12.776;2023-04-15T03:07:40;293.70;;;55.10;;
31091;SDS011;67728;53.122;12.776;2023-04-15T03:09:12;294.47;;;55.73;;
31091;SDS011;67728;53.122;12.776;2023-04-15T03:10:43;293.73;;;55.20;;
31091;SDS011;67728;53.122;12.776;2023-04-15T03:12:15;292.07;;;54.70;;
31091;SDS011;67728;53.122;12.776;2023-04-15T03:13:48;293.43;;;55.33;;
31091;SDS011;67728;53.122;12.776;2023-04-15T03:15:20;292.63;;;55.03;;
31091;SDS011;67728;53.122;12.776;2023-04-15T03:16:52;295.10;;;55.63;;
31091;SDS011;67728;53.122;12.776;2023-04-15T03:18:23;292.07;;;55.10;;
31091;SDS011;67728;53.122;12.776;2023-04-15T03:19:55;292.67;;;55.40;;
31091;SDS011;67728;53.122;12.776;2023-04-15T03:21:26;292.67;;;55.27;;
31091;SDS011;67728;53.122;12.776;2023-04-15T03:22:58;297.17;;;55.73;;
31091;SDS011;67728;53.122;12.776;2023-04-15T03:24:30;292.47;;;54.93;;
31091;SDS011;67728;53.122;12.776;2023-04-15T03:26:01;293.90;;;55.20;;
31091;SDS011;67728;53.122;12.776;2023-04-15T03:27:33;294.13;;;55.43;;
31091;SDS011;67728;53.122;12.776;2023-04-15T03:29:06;294.17;;;55.77;;
31091;SDS011;67728;53.122;12.776;2023-04-15T03:30:38;292.17;;;55.27;;
31091;SDS011;67728;53.122;12.776;2023-04-15T03:32:09;293.33;;;55.10;;
31091;SDS011;67728;53.122;12.776;2023-04-15T03:33:41;294.07;;;55.20;;
31091;SDS011;67728;53.122;12.776;2023-04-15T03:35:12;294.97;;;55.37;;
31091;SDS011;67728;53.122;12.776;2023-04-15T03:36:44;293.10;;;55.13;;
31091;SDS011;67728;53.122;12.776;2023-04-15T03:38:16;295.10;;;55.97;;
31091;SDS011;67728;53.122;12.776;2023-04-15T03:39:48;296.23;;;55.47;;
31091;SDS011;67728;53.122;12.776;2023-04-15T03:41:19;294.73;;;55.70;;
31091;SDS011;67728;53.122;12.776;2023-04-15T03:42:51;294.60;;;55.13;;
31091;SDS011;67728;53.122;12.776;2023-04-15T03:44:25;297.27;;;55.90;;
31091;SDS011;67728;53.122;12.776;2023-04-15T03:45:56;297.87;;;55.83;;
31091;SDS011;67728;53.122;12.776;2023-04-15T03:47:27;292.83;;;54.90;;
31091;SDS011;67728;53.122;12.776;2023-04-15T03:48:59;295.40;;;55.37;;
31091;SDS011;67728;53.122;12.776;2023-04-15T03:50:30;298.73;;;56.23;;
31091;SDS011;67728;53.122;12.776;2023-04-15T03:52:02;295.10;;;55.40;;
31091;SDS011;67728;53.122;12.776;2023-04-15T03:53:33;294.97;;;55.10;;
31091;SDS011;67728;53.122;12.776;2023-04-15T03:55:04;294.13;;;55.10;;
31091;SDS011;67728;53.122;12.776;2023-04-15T03:56:37;292.57;;;54.50;;
31091;SDS011;67728;53.122;12.776;2023-04-15T03:58:09;293.63;;;55.20;;
31091;SDS011;67728;53.122;12.776;2023-04-15T03:59:43;294.57;;;55.27;;
31091;SDS011;67728;53.122;12.776;2023-04-15T04:01:14;299.00;;;56.10;;
31091;SDS011;67728;53.122;12.776;2023-04-15T04:02:46;296.03;;;55.63;;
31091;SDS011;67728;53.122;12.776;2023-04-15T04:04:17;297.33;;;55.87;;
31091;SDS011;67728;53.122;12.776;2023-04-15T04:05:49;295.57;;;55.60;;
31091;SDS011;67728;53.122;12.776;2023-04-15T04:07:22;296.10;;;55.83;;
31091;SDS011;67728;53.122;12.776;2023-04-15T04:08:54;295.40;;;55.33;;
31091;SDS011;67728;53.122;12.776;2023-04-15T04:10:26;295.63;;;55.50;;
31091;SDS011;67728;53.122;12.776;2023-04-15T04:11:58;296.47;;;55.47;;
31091;SDS011;67728;53.122;12.776;2023-04-15T04:13:30;298.03;;;56.00;;
31091;SDS011;67728;53.122;12.776;2023-04-15T04:15:03;303.97;;;57.43;;
31091;SDS011;67728;53.122;12.776;2023-04-15T04:16:35;311.70;;;58.53;;
31091;SDS011;67728;53.122;12.776;2023-04-15T04:18:07;311.17;;;58.57;;
31091;SDS011;67728;53.122;12.776;2023-04-15T04:19:38;304.93;;;57.40;;
31091;SDS011;67728;53.122;12.776;2023-04-15T04:21:10;307.33;;;58.33;;
31091;SDS011;67728;53.122;12.776;2023-04-15T04:22:41;306.80;;;57.37;;
31091;SDS011;67728;53.122;12.776;2023-04-15T04:24:12;293.67;;;55.23;;
31091;SDS011;67728;53.122;12.776;2023-04-15T04:25:43;294.93;;;55.60;;
31091;SDS011;67728;53.122;12.776;2023-04-15T04:27:15;293.70;;;56.07;;
31091;SDS011;67728;53.122;12.776;2023-04-15T04:28:47;294.47;;;55.87;;
31091;SDS011;67728;53.122;12.776;2023-04-15T04:30:20;293.83;;;56.27;;
31091;SDS011;67728;53.122;12.776;2023-04-15T04:31:52;294.10;;;55.67;;
31091;SDS011;67728;53.122;12.776;2023-04-15T04:33:23;297.17;;;56.47;;
31091;SDS011;67728;53.122;12.776;2023-04-15T04:34:55;293.60;;;55.47;;
31091;SDS011;67728;53.122;12.776;2023-04-15T04:36:27;296.73;;;56.77;;
31091;SDS011;67728;53.122;12.776;2023-04-15T04:37:58;296.73;;;56.93;;
31091;SDS011;67728;53.122;12.776;2023-04-15T04:39:30;296.20;;;56.33;;
31091;SDS011;67728;53.122;12.776;2023-04-15T04:41:01;296.17;;;56.53;;
31091;SDS011;67728;53.122;12.776;2023-04-15T04:42:33;294.50;;;56.00;;
31091;SDS011;67728;53.122;12.776;2023-04-15T04:44:04;293.60;;;55.80;;
31091;SDS011;67728;53.122;12.776;2023-04-15T04:45:37;292.67;;;55.47;;
31091;SDS011;67728;53.122;12.776;2023-04-15T04:47:09;294.10;;;55.77;;
31091;SDS011;67728;53.122;12.776;2023-04-15T04:48:40;296.33;;;56.17;;
31091;SDS011;67728;53.122;12.776;2023-04-15T04:50:12;295.13;;;56.17;;
31091;SDS011;67728;53.122;12.776;2023-04-15T04:51:44;297.43;;;56.57;;
31091;SDS011;67728;53.122;12.776;2023-04-15T04:53:16;295.03;;;56.97;;
31091;SDS011;67728;53.122;12.776;2023-04-15T04:54:48;293.50;;;56.57;;
31091;SDS011;67728;53.122;12.776;2023-04-15T04:56:18;294.37;;;56.53;;
31091;SDS011;67728;53.122;12.776;2023-04-15T04:57:50;291.30;;;56.53;;
31091;SDS011;67728;53.122;12.776;2023-04-15T04:59:22;292.30;;;56.27;;
31091;SDS011;67728;53.122;12.776;2023-04-15T05:00:55;292.10;;;55.70;;
31091;SDS011;67728;53.122;12.776;2023-04-15T05:02:27;293.03;;;56.50;;
31091;SDS011;67728;53.122;12.776;2023-04-15T05:03:59;292.70;;;55.80;;
31091;SDS011;67728;53.122;12.776;2023-04-15T05:05:30;292.13;;;56.23;;
31091;SDS011;67728;53.122;12.776;2023-04-15T05:07:02;294.23;;;56.10;;
31091;SDS011;67728;53.122;12.776;2023-04-15T05:08:34;294.37;;;56.10;;
31091;SDS011;67728;53.122;12.776;2023-04-15T05:10:05;294.47;;;56.30;;
31091;SDS011;67728;53.122;12.776;2023-04-15T05:11:38;296.33;;;56.33;;
31091;SDS011;67728;53.122;12.776;2023-04-15T05:13:09;294.33;;;56.07;;
31091;SDS011;67728;53.122;12.776;2023-04-15T05:14:41;295.53;;;56.37;;
31091;SDS011;67728;53.122;12.776;2023-04-15T05:16:14;295.63;;;56.40;;
31091;SDS011;67728;53.122;12.776;2023-04-15T05:17:46;294.77;;;56.20;;
31091;SDS011;67728;53.122;12.776;2023-04-15T05:19:17;296.00;;;56.70;;
31091;SDS011;67728;53.122;12.776;2023-04-15T05:20:48;298.60;;;57.20;;
31091;SDS011;67728;53.122;12.776;2023-04-15T05:22:20;297.90;;;57.47;;
31091;SDS011;67728;53.122;12.776;2023-04-15T05:23:52;297.43;;;56.97;;
31091;SDS011;67728;53.122;12.776;2023-04-15T05:25:23;294.80;;;56.47;;
31091;SDS011;67728;53.122;12.776;2023-04-15T05:26:55;295.67;;;56.40;;
31091;SDS011;67728;53.122;12.776;2023-04-15T05:28:26;298.27;;;56.93;;
31091;SDS011;67728;53.122;12.776;2023-04-15T05:29:58;297.20;;;56.73;;
31091;SDS011;67728;53.122;12.776;2023-04-15T05:31:31;295.13;;;56.87;;
31091;SDS011;67728;53.122;12.776;2023-04-15T05:33:03;297.13;;;56.77;;
31091;SDS011;67728;53.122;12.776;2023-04-15T05:34:34;295.87;;;57.07;;
31091;SDS011;67728;53.122;12.776;2023-04-15T05:36:05;296.50;;;56.87;;
31091;SDS011;67728;53.122;12.776;2023-04-15T05:37:37;296.07;;;56.83;;
31091;SDS011;67728;53.122;12.776;2023-04-15T05:39:09;295.73;;;56.70;;
31091;SDS011;67728;53.122;12.776;2023-04-15T05:40:41;295.87;;;57.10;;
31091;SDS011;67728;53.122;12.776;2023-04-15T05:42:12;295.23;;;56.57;;
31091;SDS011;67728;53.122;12.776;2023-04-15T05:43:44;296.23;;;57.10;;
31091;SDS011;67728;53.122;12.776;2023-04-15T05:45:15;295.43;;;57.17;;
31091;SDS011;67728;53.122;12.776;2023-04-15T05:46:48;296.50;;;57.40;;
31091;SDS011;67728;53.122;12.776;2023-04-15T05:48:20;295.33;;;57.20;;
31091;SDS011;67728;53.122;12.776;2023-04-15T05:49:51;297.87;;;58.33;;
31091;SDS011;67728;53.122;12.776;2023-04-15T05:51:24;297.97;;;57.47;;
31091;SDS011;67728;53.122;12.776;2023-04-15T05:52:56;296.27;;;57.43;;
31091;SDS011;67728;53.122;12.776;2023-04-15T05:54:27;293.73;;;57.20;;
31091;SDS011;67728;53.122;12.776;2023-04-15T05:55:59;298.13;;;57.43;;
31091;SDS011;67728;53.122;12.776;2023-04-15T05:57:31;295.83;;;56.87;;
31091;SDS011;67728;53.122;12.776;2023-04-15T05:59:03;296.90;;;57.00;;
31091;SDS011;67728;53.122;12.776;2023-04-15T06:00:34;296.10;;;56.90;;
31091;SDS011;67728;53.122;12.776;2023-04-15T06:02:08;296.43;;;57.20;;
31091;SDS011;67728;53.122;12.776;2023-04-15T06:03:40;295.27;;;57.20;;
31091;SDS011;67728;53.122;12.776;2023-04-15T06:05:12;293.80;;;56.63;;
31091;SDS011;67728;53.122;12.776;2023-04-15T06:06:44;295.07;;;56.67;;
31091;SDS011;67728;53.122;12.776;2023-04-15T06:08:16;296.83;;;57.13;;
31091;SDS011;67728;53.122;12.776;2023-04-15T06:09:48;296.43;;;56.93;;
31091;SDS011;67728;53.122;12.776;2023-04-15T06:11:20;295.90;;;57.10;;
31091;SDS011;67728;53.122;12.776;2023-04-15T06:12:52;295.77;;;56.83;;
31091;SDS011;67728;53.122;12.776;2023-04-15T06:14:23;297.87;;;57.73;;
31091;SDS011;67728;53.122;12.776;2023-04-15T06:15:55;294.67;;;56.67;;
31091;SDS011;67728;53.122;12.776;2023-04-15T06:17:28;295.47;;;57.07;;
31091;SDS011;67728;53.122;12.776;2023-04-15T06:18:59;294.87;;;57.13;;
31091;SDS011;67728;53.122;12.776;2023-04-15T06:20:31;297.60;;;57.53;;
31091;SDS011;67728;53.122;12.776;2023-04-15T06:22:03;298.27;;;57.73;;
31091;SDS011;67728;53.122;12.776;2023-04-15T06:23:36;295.93;;;57.13;;
31091;SDS011;67728;53.122;12.776;2023-04-15T06:25:07;296.07;;;57.27;;
31091;SDS011;67728;53.122;12.776;2023-04-15T06:26:39;296.90;;;57.13;;
31091;SDS011;67728;53.122;12.776;2023-04-15T06:28:11;296.37;;;57.27;;
31091;SDS011;67728;53.122;12.776;2023-04-15T06:29:43;297.10;;;57.00;;
31091;SDS011;67728;53.122;12.776;2023-04-15T06:31:13;297.60;;;57.50;;
31091;SDS011;67728;53.122;12.776;2023-04-15T06:32:47;298.10;;;57.30;;
31091;SDS011;67728;53.122;12.776;2023-04-15T06:34:17;299.50;;;57.93;;
31091;SDS011;67728;53.122;12.776;2023-04-15T06:35:49;300.13;;;58.13;;
31091;SDS011;67728;53.122;12.776;2023-04-15T06:37:20;296.87;;;57.23;;
31091;SDS011;67728;53.122;12.776;2023-04-15T06:38:52;297.50;;;57.63;;
31091;SDS011;67728;53.122;12.776;2023-04-15T06:40:24;298.13;;;57.87;;
31091;SDS011;67728;53.122;12.776;2023-04-15T06:41:55;300.43;;;58.30;;
31091;SDS011;67728;53.122;12.776;2023-04-15T06:43:27;298.17;;;57.30;;
31091;SDS011;67728;53.122;12.776;2023-04-15T06:44:59;304.60;;;59.27;;
31091;SDS011;67728;53.122;12.776;2023-04-15T06:46:30;303.30;;;59.23;;
31091;SDS011;67728;53.122;12.776;2023-04-15T06:48:04;301.53;;;58.87;;
31091;SDS011;67728;53.122;12.776;2023-04-15T06:49:36;298.30;;;57.73;;
31091;SDS011;67728;53.122;12.776;2023-04-15T06:51:06;299.97;;;58.17;;
31091;SDS011;67728;53.122;12.776;2023-04-15T06:52:39;299.13;;;58.57;;
31091;SDS011;67728;53.122;12.776;2023-04-15T06:54:11;299.10;;;58.40;;
31091;SDS011;67728;53.122;12.776;2023-04-15T06:55:43;302.23;;;59.07;;
31091;SDS011;67728;53.122;12.776;2023-04-15T06:57:15;301.27;;;59.07;;
31091;SDS011;67728;53.122;12.776;2023-04-15T06:58:47;303.03;;;59.57;;
31091;SDS011;67728;53.122;12.776;2023-04-15T07:00:19;302.43;;;59.23;;
31091;SDS011;67728;53.122;12.776;2023-04-15T07:01:50;306.87;;;61.17;;
31091;SDS011;67728;53.122;12.776;2023-04-15T07:03:23;301.77;;;59.93;;
31091;SDS011;67728;53.122;12.776;2023-04-15T07:04:55;304.17;;;60.43;;
31091;SDS011;67728;53.122;12.776;2023-04-15T07:06:26;302.10;;;60.27;;
31091;SDS011;67728;53.122;12.776;2023-04-15T07:07:58;302.10;;;59.20;;
31091;SDS011;67728;53.122;12.776;2023-04-15T07:09:30;302.27;;;59.20;;
31091;SDS011;67728;53.122;12.776;2023-04-15T07:11:03;301.73;;;59.63;;
31091;SDS011;67728;53.122;12.776;2023-04-15T07:12:35;304.13;;;59.83;;
31091;SDS011;67728;53.122;12.776;2023-04-15T07:14:06;303.87;;;60.13;;
31091;SDS011;67728;53.122;12.776;2023-04-15T07:15:38;301.57;;;59.53;;
31091;SDS011;67728;53.122;12.776;2023-04-15T07:17:10;302.73;;;60.47;;
31091;SDS011;67728;53.122;12.776;2023-04-15T07:18:43;302.70;;;60.17;;
31091;SDS011;67728;53.122;12.776;2023-04-15T07:20:15;303.63;;;60.23;;
31091;SDS011;67728;53.122;12.776;2023-04-15T07:21:47;304.90;;;60.57;;
31091;SDS011;67728;53.122;12.776;2023-04-15T07:23:18;321.43;;;64.50;;
31091;SDS011;67728;53.122;12.776;2023-04-15T07:24:50;306.87;;;67.30;;
31091;SDS011;67728;53.122;12.776;2023-04-15T07:26:21;306.07;;;61.57;;
31091;SDS011;67728;53.122;12.776;2023-04-15T07:27:53;308.50;;;61.63;;
31091;SDS011;67728;53.122;12.776;2023-04-15T07:29:25;305.43;;;62.20;;
31091;SDS011;67728;53.122;12.776;2023-04-15T07:30:57;310.83;;;65.27;;
31091;SDS011;67728;53.122;12.776;2023-04-15T07:32:28;304.10;;;61.47;;
31091;SDS011;67728;53.122;12.776;2023-04-15T07:34:01;304.37;;;61.80;;
31091;SDS011;67728;53.122;12.776;2023-04-15T07:35:34;302.67;;;60.10;;
31091;SDS011;67728;53.122;12.776;2023-04-15T07:37:05;304.77;;;61.33;;
31091;SDS011;67728;53.122;12.776;2023-04-15T07:38:37;304.40;;;61.77;;
31091;SDS011;67728;53.122;12.776;2023-04-15T07:40:10;304.03;;;60.57;;
31091;SDS011;67728;53.122;12.776;2023-04-15T07:41:43;303.97;;;61.20;;
31091;SDS011;67728;53.122;12.776;2023-04-15T07:43:15;302.00;;;60.63;;
31091;SDS011;67728;53.122;12.776;2023-04-15T07:44:47;303.03;;;61.13;;
31091;SDS011;67728;53.122;12.776;2023-04-15T07:46:19;307.00;;;62.07;;
31091;SDS011;67728;53.122;12.776;2023-04-15T07:47:52;303.97;;;60.77;;
31091;SDS011;67728;53.122;12.776;2023-04-15T07:49:26;305.10;;;66.93;;
31091;SDS011;67728;53.122;12.776;2023-04-15T07:50:58;300.90;;;59.83;;
31091;SDS011;67728;53.122;12.776;2023-04-15T07:52:29;302.30;;;60.60;;
31091;SDS011;67728;53.122;12.776;2023-04-15T07:54:04;305.97;;;61.57;;
31091;SDS011;67728;53.122;12.776;2023-04-15T07:55:36;302.77;;;60.33;;
31091;SDS011;67728;53.122;12.776;2023-04-15T07:57:09;308.97;;;64.13;;
31091;SDS011;67728;53.122;12.776;2023-04-15T07:58:41;304.73;;;60.47;;
31091;SDS011;67728;53.122;12.776;2023-04-15T08:00:13;301.23;;;60.03;;
31091;SDS011;67728;53.122;12.776;2023-04-15T08:01:45;303.37;;;60.90;;
31091;SDS011;67728;53.122;12.776;2023-04-15T08:03:17;303.57;;;61.40;;
31091;SDS011;67728;53.122;12.776;2023-04-15T08:04:50;305.00;;;61.77;;
31091;SDS011;67728;53.122;12.776;2023-04-15T08:06:22;305.07;;;62.30;;
31091;SDS011;67728;53.122;12.776;2023-04-15T08:07:53;303.07;;;62.67;;
31091;SDS011;67728;53.122;12.776;2023-04-15T08:09:25;303.60;;;63.10;;
31091;SDS011;67728;53.122;12.776;2023-04-15T08:10:57;314.23;;;65.40;;
31091;SDS011;67728;53.122;12.776;2023-04-15T08:12:29;310.87;;;63.73;;
31091;SDS011;67728;53.122;12.776;2023-04-15T08:14:00;305.90;;;63.40;;
31091;SDS011;67728;53.122;12.776;2023-04-15T08:15:32;305.93;;;62.77;;
31091;SDS011;67728;53.122;12.776;2023-04-15T08:17:04;303.80;;;62.33;;
31091;SDS011;67728;53.122;12.776;2023-04-15T08:18:36;305.63;;;62.33;;
31091;SDS011;67728;53.122;12.776;2023-04-15T08:20:08;305.53;;;61.87;;
31091;SDS011;67728;53.122;12.776;2023-04-15T08:21:41;305.90;;;62.20;;
31091;SDS011;67728;53.122;12.776;2023-04-15T08:23:12;307.47;;;69.87;;
31091;SDS011;67728;53.122;12.776;2023-04-15T08:24:44;304.87;;;62.70;;
31091;SDS011;67728;53.122;12.776;2023-04-15T08:26:15;306.57;;;64.37;;
31091;SDS011;67728;53.122;12.776;2023-04-15T08:27:46;308.77;;;65.40;;
31091;SDS011;67728;53.122;12.776;2023-04-15T08:29:18;312.10;;;65.33;;
31091;SDS011;67728;53.122;12.776;2023-04-15T08:30:51;307.60;;;63.87;;
31091;SDS011;67728;53.122;12.776;2023-04-15T08:32:23;313.27;;;68.20;;
31091;SDS011;67728;53.122;12.776;2023-04-15T08:33:55;309.53;;;64.63;;
31091;SDS011;67728;53.122;12.776;2023-04-15T08:35:29;309.03;;;63.80;;
31091;SDS011;67728;53.122;12.776;2023-04-15T08:37:01;310.20;;;64.23;;
31091;SDS011;67728;53.122;12.776;2023-04-15T08:38:33;306.67;;;62.37;;
31091;SDS011;67728;53.122;12.776;2023-04-15T08:40:05;308.77;;;63.50;;
31091;SDS011;67728;53.122;12.776;2023-04-15T08:41:39;308.40;;;62.07;;